X  Sluiten METAR luchtvaart weer gegevens         EHGG Groningen Airport Eelde
Temperatuur
11°C Temperatuur
9°C Dauwpunt
87% Vochtigheid



Wind
28 KM/U
17 MPH
8 M/S
15 KTS



190°
Z
Huidig weer

Sunny Zonnig
Luchtdruk 997 (hPa) - 29.44 (inHg)
Zicht 6 (mijl) - 10 (km)
Vliegveld
Vliegveld code EHGG

Locatie : Groningen Airport Eelde
Afstand: 14 (km)

Metar:
METAR EHGG 260825Z AUTO 19015KT 150V230 9999 NSC 11/09 Q0997 NOSIG

Tijd: 26-09-2022 10:25 CEST